M/V Jesse B Gunstream Jr — WDB6583 — position and weather

sailwx.info

Track history (hours):
 
Tides and Currents Weather Stations Pressure Air Temp Water Temp Dewpoint Dewpoint Depression Visibility Wind Speed Wind Dir Waves Ship Positions

M/V Jesse B Gunstream Jr

Owner: Higman Barge Lines, Inc., ORANGE, TX. More information available from US FCC via Universal Licensing System and Coast Guard Vessel Documentation Center.

Last reported at 2018-May-18 10:34 UTC. Time now 2018-May-22 16:04 UTC.
Position N 29°46' W 095°06'.

Type: Ship (hazmat cat A). MMSI: 366926990.

Date/timePositionNaut miles runAvg speedWind from/ knotsBaromVisibWave heightAir tempDewpointWater temp
2018-May-18 10:34N 29°46' W 095°06'0 0.0
2018-May-18 10:30N 29°46' W 095°06'0 0.0
2018-May-18 09:59N 29°46' W 095°06'0 0.0
2018-May-18 09:30N 29°46' W 095°06'0 0.0
2018-May-18 09:00N 29°46' W 095°06'0 0.0
2018-May-18 08:30N 29°46' W 095°06'0 0.0
2018-May-18 08:00N 29°46' W 095°06'0 0.0
2018-May-18 07:30N 29°46' W 095°06'0 0.0
2018-May-18 07:00N 29°46' W 095°06'0 0.0
2018-May-18 06:30N 29°46' W 095°06'0 0.0
2018-May-18 05:58N 29°46' W 095°06'0 0.0
2018-May-18 05:30N 29°46' W 095°06'0 0.0
2018-May-18 05:00N 29°46' W 095°06'0 0.0
2018-May-18 04:30N 29°46' W 095°06'0 0.0
2018-May-18 03:43N 29°46' W 095°06'0 0.0
2018-May-18 03:30N 29°46' W 095°06'0 0.0
2018-May-18 03:00N 29°46' W 095°06'0 0.0
2018-May-17 12:15N 29°46' W 095°06'0 0.0
2018-May-17 10:45N 29°46' W 095°06'0 0.0
2018-May-17 09:30N 29°46' W 095°06'0 0.0
2018-May-17 08:17N 29°46' W 095°06'0 0.0
2018-May-17 05:52N 29°46' W 095°06'0 0.0
2018-May-17 05:10N 29°46' W 095°06'0 0.0
2018-May-17 04:11N 29°46' W 095°06'0 0.0
2018-May-17 04:00N 29°46' W 095°06'0 0.0
2018-May-17 03:27N 29°46' W 095°06'0 0.0
2018-May-17 03:00N 29°46' W 095°06'1 1.9
2018-May-17 02:30N 29°46' W 095°07'0 0.5
2018-May-17 01:58N 29°46' W 095°06'2 3.2
2018-May-17 01:27N 29°44' W 095°07'1 0.1
2018-May-16 14:40N 29°44' W 095°08'0 0.0
2018-May-16 14:30N 29°44' W 095°08'0 0.0
2018-May-16 13:48N 29°44' W 095°08'0 0.0
2018-May-16 12:42N 29°44' W 095°08'0 0.0
2018-May-16 12:29N 29°44' W 095°08'0 0.0
2018-May-16 12:00N 29°44' W 095°08'0 0.0
2018-May-16 11:30N 29°44' W 095°08'0 0.0
2018-May-16 11:00N 29°44' W 095°08'0 0.0
2018-May-16 10:06N 29°44' W 095°08'0 0.0
2018-May-16 09:45N 29°44' W 095°08'0 0.0
2018-May-16 09:29N 29°44' W 095°08'0 0.0
2018-May-16 09:00N 29°44' W 095°08'0 0.0
2018-May-16 08:30N 29°44' W 095°08'0 0.0
2018-May-16 08:00N 29°44' W 095°08'0 0.0
2018-May-16 07:30N 29°44' W 095°08'0 0.0
2018-May-16 06:42N 29°44' W 095°08'0 0.0
2018-May-16 06:30N 29°44' W 095°08'0 0.0
2018-May-16 06:00N 29°44' W 095°08'0 0.4
2018-May-16 05:28N 29°44' W 095°08'0 0.0
2018-May-16 04:46N 29°44' W 095°08'0 0.0
2018-May-16 04:30N 29°44' W 095°08'0 0.0
2018-May-16 04:00N 29°44' W 095°08'0 0.0
2018-May-16 03:29N 29°44' W 095°08'0 0.4
2018-May-16 03:00N 29°44' W 095°08'0 0.7
2018-May-16 02:30N 29°44' W 095°08'0 0.0
2018-May-16 01:57N 29°44' W 095°08'0 0.0
2018-May-16 01:30N 29°44' W 095°08'13 1.3
2018-May-15 15:28N 29°36' W 094°57'5 8.5
2018-May-15 14:55N 29°32' W 094°54'6 9.3
2018-May-15 14:16N 29°27' W 094°51'3 9.7
2018-May-15 13:58N 29°24' W 094°49'3 5.6
2018-May-15 13:25N 29°23' W 094°46'1 3.6
2018-May-15 13:00N 29°24' W 094°45'2 4.0
2018-May-15 12:30N 29°26' W 094°43'3 5.5
2018-May-15 12:00N 29°27' W 094°40'3 4.7
2018-May-15 11:28N 29°28' W 094°38'3 5.5
2018-May-15 11:00N 29°29' W 094°35'3 5.4
2018-May-15 10:30N 29°30' W 094°32'3 4.8
2018-May-15 09:58N 29°31' W 094°29'3 4.7
2018-May-15 09:24N 29°34' W 094°28'4 3.7
2018-May-15 08:21N 29°36' W 094°24'2 5.0
2018-May-15 07:55N 29°37' W 094°22'2 5.5
2018-May-15 07:30N 29°38' W 094°19'3 5.3
2018-May-15 07:00N 29°39' W 094°17'3 5.3
2018-May-15 06:29N 29°40' W 094°14'3 5.4
2018-May-15 05:59N 29°41' W 094°11'3 5.1
2018-May-15 05:30N 29°42' W 094°08'3 5.4
2018-May-15 05:00N 29°44' W 094°06'3 5.3
2018-May-15 04:29N 29°46' W 094°03'3 5.2
2018-May-15 04:00N 29°47' W 094°01'3 5.0
2018-May-15 03:30N 29°49' W 093°59'2 4.5
2018-May-15 03:00N 29°50' W 093°57'4 8.3
2018-May-15 02:30N 29°54' W 093°54'5 9.1
2018-May-15 02:00N 29°58' W 093°51'3 5.9
2018-May-15 01:30N 29°59' W 093°48'4 7.2
2018-May-15 01:00N 30°01' W 093°45'3 6.6
2018-May-15 00:29N 30°03' W 093°42'1 2.4
2018-May-15 00:00N 30°04' W 093°41'7 5.0
2018-May-14 22:42N 30°04' W 093°33'1 5.1
2018-May-14 22:29N 30°04' W 093°32'3 5.3
2018-May-14 22:00N 30°04' W 093°29'3 5.3
2018-May-14 21:30N 30°04' W 093°26'3 5.3
2018-May-14 21:00N 30°04' W 093°23'2 3.5
2018-May-14 20:30N 30°04' W 093°21'2 3.3
2018-May-14 20:00N 30°05' W 093°20'2 3.6
2018-May-14 19:30N 30°05' W 093°18'0 0.9
2018-May-14 19:00N 30°05' W 093°17'1 2.1
2018-May-14 18:30N 30°04' W 093°16'0 0.5
2018-May-14 18:00N 30°04' W 093°16'0 0.0
2018-May-14 17:06N 30°04' W 093°16'0 0.2
2018-May-14 17:00N 30°04' W 093°16'0 0.0
2018-May-14 16:29N 30°04' W 093°16'0 0.0
2018-May-14 16:00N 30°04' W 093°16'0 0.0
2018-May-14 15:30N 30°04' W 093°16'0 0.0
2018-May-14 15:00N 30°04' W 093°16'0 0.0
2018-May-14 14:27N 30°04' W 093°16'0 0.1
2018-May-14 14:00N 30°04' W 093°16'0 0.0
2018-May-14 13:30N 30°04' W 093°16'0 0.8
2018-May-14 12:55N 30°04' W 093°16'2 4.2
2018-May-14 12:30N 30°02' W 093°15'2 4.4
2018-May-14 12:00N 30°00' W 093°14'2 3.2
2018-May-14 11:30N 29°59' W 093°12'0 0.1
2018-May-14 11:00N 29°59' W 093°12'1 1.3
2018-May-14 10:30N 29°58' W 093°12'2 3.6
2018-May-14 10:00N 29°57' W 093°10'2 4.5
2018-May-14 09:30N 29°56' W 093°08'2 4.8
2018-May-14 09:00N 29°56' W 093°05'2 3.6
2018-May-14 08:27N 29°56' W 093°03'3 5.0
2018-May-14 07:52N 29°56' W 092°60'2 4.9
2018-May-14 07:27N 29°56' W 092°57'1 2.2
2018-May-14 06:53N 29°56' W 092°56'112 3.5
2018-May-12 22:58N 29°32' W 090°50'3 5.9
2018-May-12 22:30N 29°32' W 090°47'2 4.8
2018-May-12 22:00N 29°34' W 090°45'2 3.9
2018-May-12 21:30N 29°35' W 090°43'2 4.3
2018-May-12 21:00N 29°37' W 090°42'2 4.6
2018-May-12 20:30N 29°36' W 090°40'3 5.4
2018-May-12 20:00N 29°35' W 090°37'3 4.9
2018-May-12 19:30N 29°34' W 090°34'3 5.5
2018-May-12 18:59N 29°34' W 090°31'  
Track history (hours):
 
Tides and Currents Weather Stations Pressure Air Temp Water Temp Dewpoint Dewpoint Depression Visibility Wind Speed Wind Dir Waves Ship Positions

M/V Jesse B Gunstream Jr

Owner: Higman Barge Lines, Inc., ORANGE, TX. More information available from US FCC via Universal Licensing System and Coast Guard Vessel Documentation Center.

Last reported at 2018-May-18 10:34 UTC. Time now 2018-May-22 16:04 UTC.
Position N 29°46' W 095°06'.

Type: Ship (hazmat cat A). MMSI: 366926990.

Date/timePositionNaut miles runAvg speedWind from/ knotsBaromVisibWave heightAir tempDewpointWater temp
2018-May-18 10:34N 29°46' W 095°06'0 0.0
2018-May-18 10:30N 29°46' W 095°06'0 0.0
2018-May-18 09:59N 29°46' W 095°06'0 0.0
2018-May-18 09:30N 29°46' W 095°06'0 0.0
2018-May-18 09:00N 29°46' W 095°06'0 0.0
2018-May-18 08:30N 29°46' W 095°06'0 0.0
2018-May-18 08:00N 29°46' W 095°06'0 0.0
2018-May-18 07:30N 29°46' W 095°06'0 0.0
2018-May-18 07:00N 29°46' W 095°06'0 0.0
2018-May-18 06:30N 29°46' W 095°06'0 0.0
2018-May-18 05:58N 29°46' W 095°06'0 0.0
2018-May-18 05:30N 29°46' W 095°06'0 0.0
2018-May-18 05:00N 29°46' W 095°06'0 0.0
2018-May-18 04:30N 29°46' W 095°06'0 0.0
2018-May-18 03:43N 29°46' W 095°06'0 0.0
2018-May-18 03:30N 29°46' W 095°06'0 0.0
2018-May-18 03:00N 29°46' W 095°06'0 0.0
2018-May-17 12:15N 29°46' W 095°06'0 0.0
2018-May-17 10:45N 29°46' W 095°06'0 0.0
2018-May-17 09:30N 29°46' W 095°06'0 0.0
2018-May-17 08:17N 29°46' W 095°06'0 0.0
2018-May-17 05:52N 29°46' W 095°06'0 0.0
2018-May-17 05:10N 29°46' W 095°06'0 0.0
2018-May-17 04:11N 29°46' W 095°06'0 0.0
2018-May-17 04:00N 29°46' W 095°06'0 0.0
2018-May-17 03:27N 29°46' W 095°06'0 0.0
2018-May-17 03:00N 29°46' W 095°06'1 1.9
2018-May-17 02:30N 29°46' W 095°07'0 0.5
2018-May-17 01:58N 29°46' W 095°06'2 3.2
2018-May-17 01:27N 29°44' W 095°07'1 0.1
2018-May-16 14:40N 29°44' W 095°08'0 0.0
2018-May-16 14:30N 29°44' W 095°08'0 0.0
2018-May-16 13:48N 29°44' W 095°08'0 0.0
2018-May-16 12:42N 29°44' W 095°08'0 0.0
2018-May-16 12:29N 29°44' W 095°08'0 0.0
2018-May-16 12:00N 29°44' W 095°08'0 0.0
2018-May-16 11:30N 29°44' W 095°08'0 0.0
2018-May-16 11:00N 29°44' W 095°08'0 0.0
2018-May-16 10:06N 29°44' W 095°08'0 0.0
2018-May-16 09:45N 29°44' W 095°08'0 0.0
2018-May-16 09:29N 29°44' W 095°08'0 0.0
2018-May-16 09:00N 29°44' W 095°08'0 0.0
2018-May-16 08:30N 29°44' W 095°08'0 0.0
2018-May-16 08:00N 29°44' W 095°08'0 0.0
2018-May-16 07:30N 29°44' W 095°08'0 0.0
2018-May-16 06:42N 29°44' W 095°08'0 0.0
2018-May-16 06:30N 29°44' W 095°08'0 0.0
2018-May-16 06:00N 29°44' W 095°08'0 0.4
2018-May-16 05:28N 29°44' W 095°08'0 0.0
2018-May-16 04:46N 29°44' W 095°08'0 0.0
2018-May-16 04:30N 29°44' W 095°08'0 0.0
2018-May-16 04:00N 29°44' W 095°08'0 0.0
2018-May-16 03:29N 29°44' W 095°08'0 0.4
2018-May-16 03:00N 29°44' W 095°08'0 0.7
2018-May-16 02:30N 29°44' W 095°08'0 0.0
2018-May-16 01:57N 29°44' W 095°08'0 0.0
2018-May-16 01:30N 29°44' W 095°08'13 1.3
2018-May-15 15:28N 29°36' W 094°57'5 8.5
2018-May-15 14:55N 29°32' W 094°54'6 9.3
2018-May-15 14:16N 29°27' W 094°51'3 9.7
2018-May-15 13:58N 29°24' W 094°49'3 5.6
2018-May-15 13:25N 29°23' W 094°46'1 3.6
2018-May-15 13:00N 29°24' W 094°45'2 4.0
2018-May-15 12:30N 29°26' W 094°43'3 5.5
2018-May-15 12:00N 29°27' W 094°40'3 4.7
2018-May-15 11:28N 29°28' W 094°38'3 5.5
2018-May-15 11:00N 29°29' W 094°35'3 5.4
2018-May-15 10:30N 29°30' W 094°32'3 4.8
2018-May-15 09:58N 29°31' W 094°29'3 4.7
2018-May-15 09:24N 29°34' W 094°28'4 3.7
2018-May-15 08:21N 29°36' W 094°24'2 5.0
2018-May-15 07:55N 29°37' W 094°22'2 5.5
2018-May-15 07:30N 29°38' W 094°19'3 5.3
2018-May-15 07:00N 29°39' W 094°17'3 5.3
2018-May-15 06:29N 29°40' W 094°14'3 5.4
2018-May-15 05:59N 29°41' W 094°11'3 5.1
2018-May-15 05:30N 29°42' W 094°08'3 5.4
2018-May-15 05:00N 29°44' W 094°06'3 5.3
2018-May-15 04:29N 29°46' W 094°03'3 5.2
2018-May-15 04:00N 29°47' W 094°01'3 5.0
2018-May-15 03:30N 29°49' W 093°59'2 4.5
2018-May-15 03:00N 29°50' W 093°57'4 8.3
2018-May-15 02:30N 29°54' W 093°54'5 9.1
2018-May-15 02:00N 29°58' W 093°51'3 5.9
2018-May-15 01:30N 29°59' W 093°48'4 7.2
2018-May-15 01:00N 30°01' W 093°45'3 6.6
2018-May-15 00:29N 30°03' W 093°42'1 2.4
2018-May-15 00:00N 30°04' W 093°41'7 5.0
2018-May-14 22:42N 30°04' W 093°33'1 5.1
2018-May-14 22:29N 30°04' W 093°32'3 5.3
2018-May-14 22:00N 30°04' W 093°29'3 5.3
2018-May-14 21:30N 30°04' W 093°26'3 5.3
2018-May-14 21:00N 30°04' W 093°23'2 3.5
2018-May-14 20:30N 30°04' W 093°21'2 3.3
2018-May-14 20:00N 30°05' W 093°20'2 3.6
2018-May-14 19:30N 30°05' W 093°18'0 0.9
2018-May-14 19:00N 30°05' W 093°17'1 2.1
2018-May-14 18:30N 30°04' W 093°16'0 0.5
2018-May-14 18:00N 30°04' W 093°16'0 0.0
2018-May-14 17:06N 30°04' W 093°16'0 0.2
2018-May-14 17:00N 30°04' W 093°16'0 0.0
2018-May-14 16:29N 30°04' W 093°16'0 0.0
2018-May-14 16:00N 30°04' W 093°16'0 0.0
2018-May-14 15:30N 30°04' W 093°16'0 0.0
2018-May-14 15:00N 30°04' W 093°16'0 0.0
2018-May-14 14:27N 30°04' W 093°16'0 0.1
2018-May-14 14:00N 30°04' W 093°16'0 0.0
2018-May-14 13:30N 30°04' W 093°16'0 0.8
2018-May-14 12:55N 30°04' W 093°16'2 4.2
2018-May-14 12:30N 30°02' W 093°15'2 4.4
2018-May-14 12:00N 30°00' W 093°14'2 3.2
2018-May-14 11:30N 29°59' W 093°12'0 0.1
2018-May-14 11:00N 29°59' W 093°12'1 1.3
2018-May-14 10:30N 29°58' W 093°12'2 3.6
2018-May-14 10:00N 29°57' W 093°10'2 4.5
2018-May-14 09:30N 29°56' W 093°08'2 4.8
2018-May-14 09:00N 29°56' W 093°05'2 3.6
2018-May-14 08:27N 29°56' W 093°03'3 5.0
2018-May-14 07:52N 29°56' W 092°60'2 4.9
2018-May-14 07:27N 29°56' W 092°57'1 2.2
2018-May-14 06:53N 29°56' W 092°56'112 3.5
2018-May-12 22:58N 29°32' W 090°50'3 5.9
2018-May-12 22:30N 29°32' W 090°47'2 4.8
2018-May-12 22:00N 29°34' W 090°45'2 3.9
2018-May-12 21:30N 29°35' W 090°43'2 4.3
2018-May-12 21:00N 29°37' W 090°42'2 4.6
2018-May-12 20:30N 29°36' W 090°40'3 5.4
2018-May-12 20:00N 29°35' W 090°37'3 4.9
2018-May-12 19:30N 29°34' W 090°34'3 5.5
2018-May-12 18:59N 29°34' W 090°31'  

Dump ship's entire track history